Time;durP1;ratioP1;P1;durP2;ratioP2;P2;SDS_P1;SDS_P2;PMS_P1;PMS_P2;Temp;Humidity;BMP_temperature;BMP_pressure;BME280_temperature;BME280_humidity;BME280_pressure;Samples;Min_cycle;Max_cycle;Signal;HPM_P1;HPM_P2
2022/01/03 00:01:14;;;;;;;18.05;3.10;;;;;;;;;;5039866;28;20416;-81
2022/01/03 00:03:40;;;;;;;18.17;3.80;;;;;;;;;;5047121;28;20087;-82
2022/01/03 00:06:06;;;;;;;14.13;3.70;;;;;;;;;;5030578;28;20077;-82
2022/01/03 00:08:32;;;;;;;12.15;3.10;;;;;;;;;;5042094;28;20420;-81
2022/01/03 00:10:58;;;;;;;15.88;3.20;;;;;;;;;;5025613;28;20080;-82
2022/01/03 00:13:24;;;;;;;13.77;3.10;;;;;;;;;;5026348;28;20045;-82
2022/01/03 00:15:52;;;;;;;15.00;3.58;;;;;;;;;;5026650;28;20120;-81
2022/01/03 00:18:18;;;;;;;15.70;3.40;;;;;;;;;;5042077;28;20052;-82
2022/01/03 00:20:45;;;;;;;15.02;3.30;;;;;;;;;;5025446;28;20041;-82
2022/01/03 00:23:11;;;;;;;14.65;3.40;;;;;;;;;;5041638;28;20041;-81
2022/01/03 00:25:38;;;;;;;16.45;3.55;;;;;;;;;;5025335;28;20547;-82
2022/01/03 00:28:19;;;;;;;16.48;3.53;;;;;;;;;;5025268;28;20049;-81
2022/01/03 00:30:45;;;;;;;15.45;3.33;;;;;;;;;;5025542;28;20041;-81
2022/01/03 00:33:11;;;;;;;22.50;3.83;;;;;;;;;;5025991;28;20480;-80
2022/01/03 00:35:38;;;;;;;18.65;3.90;;;;;;;;;;5025849;28;20045;-82
2022/01/03 00:38:04;;;;;;;16.58;3.53;;;;;;;;;;5042861;28;20056;-82
2022/01/03 00:40:30;;;;;;;20.50;3.13;;;;;;;;;;5043036;28;20045;-81
2022/01/03 00:42:56;;;;;;;26.95;3.63;;;;;;;;;;5026207;28;20076;-82
2022/01/03 00:45:22;;;;;;;19.35;3.17;;;;;;;;;;5043746;28;20465;-81
2022/01/03 00:47:48;;;;;;;19.02;3.42;;;;;;;;;;5027957;28;20041;-82
2022/01/03 00:50:15;;;;;;;13.20;3.10;;;;;;;;;;5046760;28;20494;-82
2022/01/03 00:52:41;;;;;;;18.17;3.25;;;;;;;;;;5045420;28;20045;-83
2022/01/03 00:55:07;;;;;;;17.83;2.90;;;;;;;;;;5045958;28;20048;-81
2022/01/03 00:57:48;;;;;;;20.92;3.45;;;;;;;;;;5063399;28;20124;-82
2022/01/03 01:00:15;;;;;;;22.65;3.38;;;;;;;;;;5044567;28;20390;-82
2022/01/03 01:02:47;;;;;;;16.73;3.25;;;;;;;;;;5045804;28;20037;-83
2022/01/03 01:05:13;;;;;;;22.85;3.70;;;;;;;;;;5027910;28;20066;-83
2022/01/03 01:07:39;;;;;;;25.10;4.20;;;;;;;;;;5027722;28;20045;-83
2022/01/03 01:10:06;;;;;;;16.52;3.00;;;;;;;;;;5028539;28;20037;-82
2022/01/03 01:12:32;;;;;;;23.80;3.17;;;;;;;;;;5028751;28;20479;-81
2022/01/03 01:14:58;;;;;;;24.63;3.53;;;;;;;;;;5029237;28;20043;-81
2022/01/03 01:17:27;;;;;;;24.40;3.78;;;;;;;;;;5047245;28;20051;-83
2022/01/03 01:19:54;;;;;;;21.85;3.65;;;;;;;;;;5047494;28;20068;-81
2022/01/03 01:22:21;;;;;;;22.23;3.22;;;;;;;;;;5058529;28;20496;-79
2022/01/03 01:24:58;;;;;;;21.77;3.70;;;;;;;;;;5041134;28;20056;-80
2022/01/03 01:30:11;;;;;;;22.70;3.50;;;;;;;;;;5059780;28;20041;-80
2022/01/03 01:32:38;;;;;;;31.58;3.88;;;;;;;;;;5044305;28;20106;-81
2022/01/03 01:35:05;;;;;;;18.67;3.53;;;;;;;;;;5031052;28;20052;-80
2022/01/03 01:37:30;;;;;;;18.90;3.28;;;;;;;;;;5042021;28;20037;-81
2022/01/03 01:39:57;;;;;;;22.10;3.45;;;;;;;;;;5044203;28;20071;-82
2022/01/03 01:42:23;;;;;;;22.55;4.05;;;;;;;;;;5047021;28;20067;-81
2022/01/03 01:44:49;;;;;;;22.85;3.90;;;;;;;;;;5048046;28;20037;-82
2022/01/03 01:47:15;;;;;;;22.67;3.50;;;;;;;;;;5030606;28;20041;-82
2022/01/03 01:49:47;;;;;;;26.40;4.07;;;;;;;;;;5047612;28;20071;-83
2022/01/03 01:52:17;;;;;;;20.05;3.60;;;;;;;;;;5031122;28;20037;-83
2022/01/03 01:54:54;;;;;;;24.55;4.22;;;;;;;;;;5032066;28;20045;-80
2022/01/03 01:57:20;;;;;;;25.73;3.65;;;;;;;;;;5031201;28;20044;-81
2022/01/03 01:59:54;;;;;;;22.40;3.63;;;;;;;;;;5031150;28;20407;-81
2022/01/03 02:02:28;;;;;;;24.95;3.90;;;;;;;;;;5048191;28;20052;-82
2022/01/03 02:05:06;;;;;;;25.88;3.83;;;;;;;;;;5049137;28;20123;-82
2022/01/03 02:07:34;;;;;;;18.10;3.42;;;;;;;;;;5066257;28;20049;-80
2022/01/03 02:10:10;;;;;;;18.40;3.38;;;;;;;;;;5066274;28;20048;-81
2022/01/03 02:12:37;;;;;;;20.27;3.88;;;;;;;;;;5048911;28;20094;-82
2022/01/03 02:15:03;;;;;;;21.52;3.55;;;;;;;;;;5049993;28;20052;-81
2022/01/03 02:17:29;;;;;;;23.73;3.33;;;;;;;;;;5050553;28;20061;-82
2022/01/03 02:20:23;;;;;;;21.40;3.83;;;;;;;;;;5050243;28;20044;-82
2022/01/03 02:22:49;;;;;;;17.67;3.50;;;;;;;;;;5046808;28;20041;-82
2022/01/03 02:25:15;;;;;;;16.38;3.45;;;;;;;;;;5056598;28;20033;-80
2022/01/03 02:27:42;;;;;;;21.90;3.50;;;;;;;;;;5047318;28;20029;-80
2022/01/03 02:30:12;;;;;;;24.08;3.75;;;;;;;;;;5042293;28;20037;-80
2022/01/03 02:32:38;;;;;;;24.45;3.72;;;;;;;;;;5047467;28;20040;-80
2022/01/03 02:35:05;;;;;;;18.23;3.28;;;;;;;;;;5065276;28;20048;-80
2022/01/03 02:37:31;;;;;;;25.40;3.45;;;;;;;;;;5031289;28;20032;-83
2022/01/03 02:39:57;;;;;;;20.15;3.03;;;;;;;;;;5030919;28;20099;-81
2022/01/03 02:42:25;;;;;;;22.75;3.38;;;;;;;;;;5031210;28;20033;-82
2022/01/03 02:45:00;;;;;;;22.15;3.35;;;;;;;;;;5047789;28;20782;-83
2022/01/03 02:47:26;;;;;;;17.73;3.15;;;;;;;;;;5047335;28;20041;-82
2022/01/03 02:49:52;;;;;;;26.52;3.88;;;;;;;;;;5030907;28;20065;-82
2022/01/03 02:52:19;;;;;;;23.00;3.70;;;;;;;;;;5047387;28;20037;-82
2022/01/03 02:54:45;;;;;;;17.33;3.30;;;;;;;;;;5030423;28;20055;-81
2022/01/03 02:57:11;;;;;;;22.50;3.53;;;;;;;;;;5045843;28;20040;-80
2022/01/03 02:59:37;;;;;;;18.15;3.05;;;;;;;;;;5046683;28;20033;-83
2022/01/03 03:02:04;;;;;;;21.17;3.45;;;;;;;;;;5047869;28;20437;-80
2022/01/03 03:04:30;;;;;;;24.20;3.45;;;;;;;;;;5064762;28;20033;-81
2022/01/03 03:06:56;;;;;;;17.27;3.10;;;;;;;;;;5047325;28;20048;-81
2022/01/03 03:09:22;;;;;;;17.88;3.03;;;;;;;;;;5046774;28;20138;-80
2022/01/03 03:11:48;;;;;;;18.52;3.10;;;;;;;;;;5029271;28;20047;-80
2022/01/03 03:14:14;;;;;;;24.02;3.50;;;;;;;;;;5046276;28;20092;-81
2022/01/03 03:16:42;;;;;;;21.15;3.28;;;;;;;;;;5046437;28;20073;-81
2022/01/03 03:19:09;;;;;;;19.02;3.20;;;;;;;;;;5026886;28;20099;-79
2022/01/03 03:21:35;;;;;;;16.77;3.00;;;;;;;;;;5046988;28;20106;-80
2022/01/03 03:24:01;;;;;;;26.52;3.63;;;;;;;;;;5060685;28;20433;-80
2022/01/03 03:26:27;;;;;;;21.50;3.13;;;;;;;;;;5043628;28;20043;-80
2022/01/03 03:28:54;;;;;;;20.88;3.08;;;;;;;;;;5024779;28;20037;-80
2022/01/03 03:31:20;;;;;;;21.77;3.13;;;;;;;;;;5040649;28;20037;-80
2022/01/03 03:33:46;;;;;;;16.70;3.13;;;;;;;;;;5024807;28;20029;-81
2022/01/03 03:36:12;;;;;;;21.20;3.22;;;;;;;;;;5040986;28;20063;-80
2022/01/03 03:38:38;;;;;;;20.33;3.25;;;;;;;;;;5040347;28;20041;-79
2022/01/03 03:41:04;;;;;;;20.75;3.30;;;;;;;;;;5023656;28;20072;-79
2022/01/03 03:43:30;;;;;;;21.88;3.53;;;;;;;;;;5057807;28;20040;-79
2022/01/03 03:45:56;;;;;;;20.48;3.33;;;;;;;;;;5040036;28;20040;-79
2022/01/03 03:48:22;;;;;;;25.92;3.53;;;;;;;;;;5034504;28;20050;-79
2022/01/03 03:50:48;;;;;;;17.88;3.28;;;;;;;;;;5006516;28;20049;-80
2022/01/03 03:53:14;;;;;;;18.75;3.40;;;;;;;;;;5005001;28;20046;-79
2022/01/03 03:55:40;;;;;;;19.85;3.22;;;;;;;;;;5023885;28;20041;-79
2022/01/03 03:58:06;;;;;;;24.60;3.10;;;;;;;;;;5024994;28;20038;-79
2022/01/03 04:00:32;;;;;;;20.38;3.55;;;;;;;;;;5003761;28;20164;-80
2022/01/03 04:02:58;;;;;;;20.13;3.30;;;;;;;;;;5020274;28;20038;-81
2022/01/03 04:05:25;;;;;;;20.13;3.33;;;;;;;;;;5003560;28;20045;-80
2022/01/03 04:07:51;;;;;;;14.85;2.72;;;;;;;;;;5021298;28;20315;-80
2022/01/03 04:10:17;;;;;;;25.35;3.35;;;;;;;;;;5020080;28;20037;-80
2022/01/03 04:12:44;;;;;;;15.98;3.28;;;;;;;;;;5002697;28;20037;-80
2022/01/03 04:15:10;;;;;;;21.42;3.85;;;;;;;;;;5019311;28;20037;-79
2022/01/03 04:17:36;;;;;;;22.45;3.45;;;;;;;;;;5018882;28;20030;-81
2022/01/03 04:20:02;;;;;;;24.08;3.53;;;;;;;;;;5019035;28;20125;-79
2022/01/03 04:22:28;;;;;;;22.80;3.47;;;;;;;;;;5019409;28;20069;-79
2022/01/03 04:24:54;;;;;;;23.70;3.72;;;;;;;;;;5019154;28;20104;-80
2022/01/03 04:27:20;;;;;;;22.92;3.25;;;;;;;;;;5018768;28;20093;-80
2022/01/03 04:29:46;;;;;;;24.73;3.53;;;;;;;;;;5019484;28;20053;-81
2022/01/03 04:32:12;;;;;;;19.15;3.67;;;;;;;;;;5017728;28;20054;-79
2022/01/03 04:34:38;;;;;;;21.13;3.60;;;;;;;;;;5000540;28;20103;-79
2022/01/03 04:37:04;;;;;;;18.00;2.88;;;;;;;;;;5017377;28;20319;-79
2022/01/03 04:39:30;;;;;;;19.38;3.63;;;;;;;;;;5017586;28;20053;-79
2022/01/03 04:41:56;;;;;;;20.17;3.22;;;;;;;;;;5018412;28;20046;-79
2022/01/03 04:44:22;;;;;;;14.82;3.10;;;;;;;;;;5000748;28;20038;-79
2022/01/03 04:46:48;;;;;;;26.33;3.42;;;;;;;;;;5017414;28;20053;-78
2022/01/03 04:49:14;;;;;;;23.08;3.63;;;;;;;;;;5042070;28;20064;-81
2022/01/03 04:51:40;;;;;;;18.98;3.20;;;;;;;;;;5021705;28;20438;-80
2022/01/03 04:54:06;;;;;;;13.52;2.95;;;;;;;;;;5040999;28;20044;-81
2022/01/03 04:56:33;;;;;;;20.80;3.60;;;;;;;;;;5024722;28;20029;-79
2022/01/03 04:58:59;;;;;;;26.88;4.00;;;;;;;;;;5025373;28;20043;-80
2022/01/03 05:01:25;;;;;;;24.70;3.50;;;;;;;;;;5024858;28;20052;-82
2022/01/03 05:03:52;;;;;;;15.02;3.05;;;;;;;;;;5041591;28;20029;-81
2022/01/03 05:06:19;;;;;;;23.17;3.85;;;;;;;;;;5043142;28;20045;-82
2022/01/03 05:08:45;;;;;;;23.90;3.45;;;;;;;;;;5041346;28;20049;-81
2022/01/03 05:11:11;;;;;;;19.00;3.22;;;;;;;;;;5039179;28;20120;-81
2022/01/03 05:13:37;;;;;;;20.83;3.50;;;;;;;;;;5037830;28;20175;-82
2022/01/03 05:16:03;;;;;;;27.00;3.78;;;;;;;;;;5023222;28;20038;-81
2022/01/03 05:18:29;;;;;;;25.17;3.47;;;;;;;;;;5025588;28;20043;-79
2022/01/03 05:20:55;;;;;;;17.88;3.00;;;;;;;;;;5044061;28;20048;-80
2022/01/03 05:23:21;;;;;;;27.88;3.58;;;;;;;;;;5044618;28;20504;-79
2022/01/03 05:25:47;;;;;;;19.17;3.20;;;;;;;;;;5026536;28;20088;-80
2022/01/03 05:28:13;;;;;;;27.50;4.07;;;;;;;;;;5026194;28;20124;-81
2022/01/03 05:30:39;;;;;;;28.80;4.07;;;;;;;;;;5026800;28;20142;-81
2022/01/03 05:33:05;;;;;;;18.17;3.55;;;;;;;;;;5026470;28;20100;-80
2022/01/03 05:35:31;;;;;;;18.30;3.45;;;;;;;;;;5042694;28;20051;-81
2022/01/03 05:37:57;;;;;;;15.98;3.00;;;;;;;;;;5026401;28;20120;-82
2022/01/03 05:40:26;;;;;;;20.42;3.38;;;;;;;;;;5042394;28;20036;-81
2022/01/03 05:42:52;;;;;;;19.98;3.15;;;;;;;;;;5042610;28;20041;-80
2022/01/03 05:45:18;;;;;;;17.40;3.13;;;;;;;;;;5023732;28;20041;-79
2022/01/03 05:47:46;;;;;;;17.98;3.25;;;;;;;;;;5041384;28;20373;-79
2022/01/03 05:50:12;;;;;;;23.05;3.72;;;;;;;;;;5026699;28;20405;-79
2022/01/03 05:52:38;;;;;;;27.75;3.55;;;;;;;;;;5029088;28;20045;-79
2022/01/03 05:55:05;;;;;;;21.90;3.38;;;;;;;;;;5029930;28;20045;-82
2022/01/03 05:57:32;;;;;;;20.77;3.38;;;;;;;;;;5063853;28;20029;-78
2022/01/03 05:59:59;;;;;;;25.70;3.03;;;;;;;;;;5031528;28;20037;-79
2022/01/03 06:02:26;;;;;;;13.65;2.78;;;;;;;;;;5043062;28;20397;-79
2022/01/03 06:07:19;;;;;;;24.33;3.13;;;;;;;;;;5065032;28;20044;-78
2022/01/03 06:09:45;;;;;;;19.77;3.03;;;;;;;;;;5028464;28;20479;-81
2022/01/03 06:12:11;;;;;;;24.85;3.50;;;;;;;;;;5028680;28;20095;-80
2022/01/03 06:14:37;;;;;;;24.17;3.70;;;;;;;;;;5028240;28;20091;-80
2022/01/03 06:17:04;;;;;;;21.38;3.35;;;;;;;;;;5027394;28;20416;-80
2022/01/03 06:19:30;;;;;;;27.00;3.53;;;;;;;;;;5044533;28;20041;-78
2022/01/03 06:21:56;;;;;;;19.65;3.42;;;;;;;;;;5028663;28;20502;-80
2022/01/03 06:24:22;;;;;;;24.92;3.20;;;;;;;;;;5026933;28;20041;-80
2022/01/03 06:26:49;;;;;;;22.30;3.40;;;;;;;;;;5027860;28;20067;-80
2022/01/03 06:29:15;;;;;;;19.65;3.42;;;;;;;;;;5044773;28;20041;-80
2022/01/03 06:31:41;;;;;;;20.85;3.05;;;;;;;;;;5027248;28;20041;-80
2022/01/03 06:34:07;;;;;;;20.10;3.25;;;;;;;;;;5026178;28;20098;-80
2022/01/03 06:36:33;;;;;;;20.60;3.45;;;;;;;;;;5045223;28;20399;-81
2022/01/03 06:38:59;;;;;;;21.02;3.25;;;;;;;;;;5046862;28;20075;-81
2022/01/03 06:41:25;;;;;;;18.05;4.13;;;;;;;;;;5058709;28;20035;-79
2022/01/03 06:43:51;;;;;;;20.95;3.47;;;;;;;;;;5045146;28;20033;-80
2022/01/03 06:46:17;;;;;;;26.92;3.30;;;;;;;;;;5040351;28;20095;-81
2022/01/03 06:48:44;;;;;;;26.38;3.83;;;;;;;;;;5045805;28;20049;-79
2022/01/03 06:51:10;;;;;;;26.73;3.80;;;;;;;;;;5051610;28;20095;-81
2022/01/03 06:53:36;;;;;;;23.23;3.50;;;;;;;;;;5060293;28;20047;-80
2022/01/03 06:56:03;;;;;;;25.25;3.75;;;;;;;;;;5063492;28;20049;-79
2022/01/03 06:58:29;;;;;;;18.77;3.13;;;;;;;;;;5078375;28;20055;-80
2022/01/03 07:00:55;;;;;;;28.67;3.80;;;;;;;;;;5026118;28;20372;-80
2022/01/03 07:03:21;;;;;;;21.45;3.70;;;;;;;;;;5026598;28;20037;-80
2022/01/03 07:05:47;;;;;;;20.95;3.60;;;;;;;;;;5066701;28;20083;-80
2022/01/03 07:08:13;;;;;;;22.35;3.78;;;;;;;;;;5066488;28;20417;-79
2022/01/03 07:10:39;;;;;;;19.25;3.47;;;;;;;;;;5061536;28;20045;-80
2022/01/03 07:13:05;;;;;;;21.67;3.33;;;;;;;;;;5042626;28;20055;-80
2022/01/03 07:21:00;;;;;;;20.35;3.47;;;;;;;;;;5045208;28;20037;-81
2022/01/03 07:23:26;;;;;;;19.85;3.67;;;;;;;;;;5027294;28;20119;-82
2022/01/03 07:25:52;;;;;;;22.45;3.42;;;;;;;;;;5057260;28;20029;-80
2022/01/03 07:28:18;;;;;;;21.88;3.33;;;;;;;;;;5061422;28;20066;-81
2022/01/03 07:30:45;;;;;;;15.00;3.15;;;;;;;;;;5061357;28;20041;-82
2022/01/03 07:33:11;;;;;;;24.20;3.80;;;;;;;;;;5045787;28;20029;-81
2022/01/03 07:35:37;;;;;;;24.13;3.28;;;;;;;;;;5050112;28;20109;-79
2022/01/03 07:38:03;;;;;;;21.58;3.50;;;;;;;;;;5062860;28;20060;-81
2022/01/03 07:40:29;;;;;;;27.55;3.50;;;;;;;;;;5038604;28;20066;-78
2022/01/03 07:42:55;;;;;;;20.20;3.42;;;;;;;;;;5062321;28;20057;-78
2022/01/03 07:45:22;;;;;;;21.60;3.45;;;;;;;;;;5028878;28;20072;-79
2022/01/03 07:47:48;;;;;;;23.52;3.00;;;;;;;;;;5046028;28;20040;-79
2022/01/03 07:50:14;;;;;;;21.45;3.47;;;;;;;;;;5046056;28;20421;-79
2022/01/03 07:52:40;;;;;;;21.98;3.60;;;;;;;;;;5046904;28;20045;-80
2022/01/03 07:55:06;;;;;;;23.88;3.13;;;;;;;;;;5027402;28;20044;-78
2022/01/03 07:57:32;;;;;;;16.98;3.30;;;;;;;;;;5044103;28;20119;-79
2022/01/03 07:59:58;;;;;;;25.38;3.67;;;;;;;;;;5049282;28;20041;-80
2022/01/03 08:02:24;;;;;;;24.95;3.65;;;;;;;;;;5032333;28;20044;-79
2022/01/03 08:04:50;;;;;;;17.52;4.07;;;;;;;;;;5046194;28;20056;-79
2022/01/03 08:07:16;;;;;;;14.88;3.05;;;;;;;;;;5029165;28;20044;-79
2022/01/03 08:09:43;;;;;;;21.70;3.30;;;;;;;;;;5028837;28;20041;-80
2022/01/03 08:12:09;;;;;;;26.45;3.65;;;;;;;;;;5028915;28;20413;-79
2022/01/03 08:14:35;;;;;;;18.38;3.42;;;;;;;;;;5028486;28;20055;-80
2022/01/03 08:17:01;;;;;;;19.23;3.60;;;;;;;;;;5028867;28;20049;-83
2022/01/03 08:19:27;;;;;;;21.40;3.60;;;;;;;;;;5060950;28;20218;-82
2022/01/03 08:21:54;;;;;;;27.45;4.15;;;;;;;;;;5044962;28;20037;-79
2022/01/03 08:24:20;;;;;;;19.83;3.60;;;;;;;;;;5043721;28;20441;-80
2022/01/03 08:26:48;;;;;;;19.23;3.50;;;;;;;;;;5044890;28;20052;-80
2022/01/03 08:29:14;;;;;;;23.70;3.40;;;;;;;;;;5034700;28;20043;-77
2022/01/03 08:31:41;;;;;;;18.88;3.20;;;;;;;;;;5040636;28;20046;-79
2022/01/03 08:34:08;;;;;;;23.20;3.72;;;;;;;;;;5046806;28;20044;-81
2022/01/03 08:36:34;;;;;;;18.52;3.55;;;;;;;;;;5045076;28;20053;-81
2022/01/03 08:39:00;;;;;;;22.83;3.33;;;;;;;;;;5045217;28;20425;-79
2022/01/03 08:41:26;;;;;;;20.27;3.40;;;;;;;;;;5028238;28;20041;-79
2022/01/03 08:43:52;;;;;;;13.00;2.88;;;;;;;;;;5027417;28;20064;-81
2022/01/03 08:46:19;;;;;;;22.05;3.50;;;;;;;;;;5026061;28;20036;-82
2022/01/03 08:48:45;;;;;;;19.65;3.65;;;;;;;;;;5026652;28;20490;-83
2022/01/03 08:51:11;;;;;;;20.33;4.15;;;;;;;;;;5026350;28;20056;-82
2022/01/03 08:53:37;;;;;;;20.70;3.67;;;;;;;;;;5027895;28;20363;-80
2022/01/03 08:56:03;;;;;;;19.67;3.67;;;;;;;;;;5043818;28;20148;-82
2022/01/03 08:58:29;;;;;;;19.92;3.95;;;;;;;;;;5027720;28;20037;-83
2022/01/03 09:00:56;;;;;;;23.30;4.68;;;;;;;;;;5027237;28;20044;-81
2022/01/03 09:03:23;;;;;;;21.17;3.63;;;;;;;;;;5025486;28;20033;-83
2022/01/03 09:05:49;;;;;;;20.63;4.35;;;;;;;;;;5025409;28;20469;-81
2022/01/03 09:08:17;;;;;;;18.85;4.35;;;;;;;;;;5046395;28;20072;-83
2022/01/03 09:10:43;;;;;;;25.40;4.47;;;;;;;;;;5025273;28;20037;-83
2022/01/03 09:13:09;;;;;;;19.30;3.95;;;;;;;;;;5042798;28;20116;-82
2022/01/03 09:15:40;;;;;;;17.00;4.10;;;;;;;;;;5024294;28;20050;-83
2022/01/03 09:18:06;;;;;;;17.08;4.00;;;;;;;;;;5045471;28;20029;-80
2022/01/03 09:20:32;;;;;;;16.40;4.25;;;;;;;;;;5050762;28;20037;-81
2022/01/03 09:23:07;;;;;;;15.90;4.22;;;;;;;;;;5025067;28;20033;-83
2022/01/03 09:30:47;;;;;;;18.02;4.07;;;;;;;;;;5041897;28;20045;-83
2022/01/03 09:33:13;;;;;;;28.88;4.75;;;;;;;;;;5024477;28;20087;-83
2022/01/03 09:35:40;;;;;;;18.30;4.32;;;;;;;;;;5041872;28;20037;-80
2022/01/03 09:38:06;;;;;;;20.05;4.10;;;;;;;;;;5040936;28;20120;-80
2022/01/03 09:40:32;;;;;;;23.33;4.85;;;;;;;;;;5030473;28;20121;-81
2022/01/03 09:42:59;;;;;;;19.35;4.50;;;;;;;;;;5031990;28;20033;-80
2022/01/03 09:45:32;;;;;;;18.85;3.97;;;;;;;;;;5025416;28;20045;-82
2022/01/03 09:47:58;;;;;;;18.75;4.10;;;;;;;;;;5040869;28;20061;-82
2022/01/03 09:50:24;;;;;;;23.77;4.72;;;;;;;;;;5024403;28;20042;-80
2022/01/03 09:52:50;;;;;;;23.77;4.20;;;;;;;;;;5040716;28;20041;-82
2022/01/03 09:55:17;;;;;;;15.52;3.58;;;;;;;;;;5023495;28;20356;-81
2022/01/03 09:57:45;;;;;;;19.40;4.07;;;;;;;;;;5039284;28;20051;-81
2022/01/03 10:00:12;;;;;;;22.10;3.75;;;;;;;;;;5042955;28;20040;-82
2022/01/03 10:02:38;;;;;;;22.13;3.88;;;;;;;;;;5026194;28;20030;-82
2022/01/03 10:05:05;;;;;;;22.30;3.97;;;;;;;;;;5028058;28;20042;-82
2022/01/03 10:07:33;;;;;;;28.17;4.15;;;;;;;;;;5044357;28;20045;-81
2022/01/03 10:09:59;;;;;;;18.35;3.35;;;;;;;;;;5028014;28;20446;-79
2022/01/03 10:12:25;;;;;;;16.75;3.70;;;;;;;;;;5045154;28;20445;-81
2022/01/03 10:14:51;;;;;;;22.05;3.60;;;;;;;;;;5028068;28;20097;-79
2022/01/03 10:17:17;;;;;;;18.02;3.42;;;;;;;;;;5028550;28;20112;-80
2022/01/03 10:19:53;;;;;;;16.75;3.42;;;;;;;;;;5028286;28;20072;-81
2022/01/03 10:22:21;;;;;;;26.67;3.70;;;;;;;;;;5027277;28;20042;-79
2022/01/03 10:24:47;;;;;;;23.83;3.55;;;;;;;;;;5025593;28;20044;-80
2022/01/03 10:27:12;;;;;;;19.15;3.38;;;;;;;;;;5043162;28;20326;-82
2022/01/03 10:29:40;;;;;;;22.08;3.63;;;;;;;;;;5042774;28;20037;-82
2022/01/03 10:32:09;;;;;;;17.75;3.38;;;;;;;;;;5029198;28;20088;-80
2022/01/03 10:34:35;;;;;;;21.50;3.45;;;;;;;;;;5040357;28;20045;-81
2022/01/03 10:37:09;;;;;;;26.00;3.10;;;;;;;;;;5042286;28;20029;-80
2022/01/03 10:39:35;;;;;;;24.92;3.80;;;;;;;;;;5042003;28;20394;-82
2022/01/03 10:42:17;;;;;;;16.38;3.65;;;;;;;;;;5042625;28;20041;-81
2022/01/03 10:44:44;;;;;;;17.67;2.97;;;;;;;;;;5041352;28;20049;-80
2022/01/03 10:47:10;;;;;;;18.02;2.92;;;;;;;;;;5025497;28;20105;-81
2022/01/03 10:49:37;;;;;;;16.55;3.20;;;;;;;;;;5040936;28;20081;-79
2022/01/03 10:52:17;;;;;;;25.70;3.72;;;;;;;;;;5029175;28;20052;-81
2022/01/03 10:54:43;;;;;;;16.92;2.53;;;;;;;;;;5044867;28;20045;-79
2022/01/03 10:57:09;;;;;;;16.60;3.28;;;;;;;;;;5024960;28;20038;-79
2022/01/03 10:59:36;;;;;;;17.75;3.35;;;;;;;;;;5047218;28;20041;-80
2022/01/03 11:02:15;;;;;;;20.15;3.70;;;;;;;;;;5069593;28;20067;-80
2022/01/03 11:05:10;;;;;;;16.83;3.47;;;;;;;;;;5073219;28;20086;-79
2022/01/03 11:13:09;;;;;;;18.92;3.38;;;;;;;;;;5060477;28;20049;-77
2022/01/03 11:15:37;;;;;;;19.90;3.35;;;;;;;;;;5050563;28;20044;-78
2022/01/03 11:18:10;;;;;;;20.02;3.35;;;;;;;;;;5071557;28;20041;-79
2022/01/03 11:20:37;;;;;;;19.55;3.50;;;;;;;;;;5032391;28;20048;-80
2022/01/03 11:23:03;;;;;;;19.35;3.22;;;;;;;;;;5032748;28;20037;-80
2022/01/03 11:25:33;;;;;;;24.52;3.58;;;;;;;;;;5046400;28;20045;-83
2022/01/03 11:28:00;;;;;;;22.77;3.70;;;;;;;;;;5027463;28;20174;-81
2022/01/03 11:30:28;;;;;;;23.48;3.58;;;;;;;;;;5042853;28;20044;-81
2022/01/03 11:32:55;;;;;;;22.70;4.20;;;;;;;;;;5027037;28;20041;-80
2022/01/03 11:35:21;;;;;;;23.50;3.92;;;;;;;;;;5044224;28;20461;-80
2022/01/03 11:37:48;;;;;;;17.55;3.17;;;;;;;;;;5027107;28;20029;-79
2022/01/03 11:40:14;;;;;;;22.90;3.72;;;;;;;;;;5042635;28;20464;-81
2022/01/03 11:42:41;;;;;;;18.67;3.30;;;;;;;;;;5026336;28;20372;-78
2022/01/03 11:45:07;;;;;;;22.00;3.33;;;;;;;;;;5027272;28;20083;-79
2022/01/03 11:47:33;;;;;;;17.00;3.50;;;;;;;;;;5044333;28;20052;-78
2022/01/03 11:50:14;;;;;;;20.17;3.55;;;;;;;;;;5046066;28;20048;-79
2022/01/03 11:52:49;;;;;;;16.92;2.75;;;;;;;;;;5010192;28;20052;-81
2022/01/03 11:55:19;;;;;;;20.45;3.28;;;;;;;;;;4979293;28;20046;-80
2022/01/03 12:05:54;;;;;;;20.13;3.20;;;;;;;;;;4984148;28;20057;-81
2022/01/03 12:08:24;;;;;;;18.98;3.20;;;;;;;;;;4983745;28;20046;-80
2022/01/03 12:10:50;;;;;;;19.05;3.25;;;;;;;;;;4968237;28;20077;-80
2022/01/03 12:13:16;;;;;;;18.00;3.50;;;;;;;;;;4967511;28;20050;-80
2022/01/03 12:15:42;;;;;;;19.15;3.05;;;;;;;;;;4983301;28;20038;-81
2022/01/03 12:18:34;;;;;;;16.23;2.95;;;;;;;;;;4984339;28;20043;-80
2022/01/03 12:21:08;;;;;;;19.35;3.22;;;;;;;;;;5001125;28;20038;-80
2022/01/03 12:23:35;;;;;;;16.15;3.45;;;;;;;;;;5004602;28;20050;-81
2022/01/03 12:26:11;;;;;;;22.75;3.05;;;;;;;;;;4970971;28;20042;-80
2022/01/03 12:28:55;;;;;;;18.55;3.38;;;;;;;;;;4969249;28;20044;-80
2022/01/03 12:31:21;;;;;;;18.85;2.92;;;;;;;;;;5001992;28;20411;-81
2022/01/03 12:34:06;;;;;;;23.73;3.45;;;;;;;;;;4970170;28;20057;-81
2022/01/03 12:36:32;;;;;;;18.02;3.20;;;;;;;;;;5005651;28;20045;-82
2022/01/03 12:39:01;;;;;;;13.40;2.60;;;;;;;;;;4969341;28;20371;-83
2022/01/03 12:42:00;;;;;;;25.42;3.10;;;;;;;;;;4968718;28;20086;-82
2022/01/03 12:44:46;;;;;;;17.90;3.00;;;;;;;;;;5002499;28;20037;-80
2022/01/03 12:47:15;;;;;;;16.45;2.60;;;;;;;;;;5060609;28;20041;-82
2022/01/03 12:49:41;;;;;;;14.27;2.28;;;;;;;;;;5021508;28;20057;-82
2022/01/03 12:52:14;;;;;;;12.70;2.90;;;;;;;;;;5039068;28;20368;-81
2022/01/03 12:54:40;;;;;;;22.15;2.80;;;;;;;;;;5022953;28;20045;-81
2022/01/03 12:57:16;;;;;;;14.82;2.88;;;;;;;;;;5040029;28;20094;-81
2022/01/03 12:59:43;;;;;;;17.77;2.83;;;;;;;;;;5023690;28;20095;-81
2022/01/03 13:02:25;;;;;;;22.63;3.20;;;;;;;;;;5025333;28;20071;-80
2022/01/03 13:04:51;;;;;;;14.30;2.95;;;;;;;;;;5033303;28;20058;-81
2022/01/03 13:07:22;;;;;;;22.52;3.60;;;;;;;;;;5041463;28;20056;-81
2022/01/03 13:09:48;;;;;;;17.42;3.20;;;;;;;;;;5027767;28;20046;-80
2022/01/03 13:12:14;;;;;;;19.20;3.30;;;;;;;;;;5052452;28;20042;-81
2022/01/03 13:14:41;;;;;;;14.43;3.03;;;;;;;;;;5034823;28;20051;-81
2022/01/03 13:17:09;;;;;;;13.95;2.90;;;;;;;;;;5055444;28;20038;-82
2022/01/03 13:19:35;;;;;;;21.58;3.25;;;;;;;;;;5053105;28;20389;-81
2022/01/03 13:22:15;;;;;;;18.60;3.42;;;;;;;;;;5028924;28;20041;-81
2022/01/03 13:24:44;;;;;;;15.82;3.30;;;;;;;;;;5028725;28;20064;-80
2022/01/03 13:27:20;;;;;;;13.18;3.13;;;;;;;;;;5030927;28;20097;-82
2022/01/03 13:29:46;;;;;;;22.27;4.18;;;;;;;;;;5027087;28;20041;-81
2022/01/03 13:32:25;;;;;;;24.40;4.13;;;;;;;;;;5046417;28;20096;-82
2022/01/03 13:34:52;;;;;;;18.63;4.10;;;;;;;;;;5031491;28;20050;-82
2022/01/03 13:37:19;;;;;;;18.60;3.50;;;;;;;;;;5042481;28;20064;-81
2022/01/03 13:39:46;;;;;;;16.58;3.10;;;;;;;;;;5027977;28;20049;-80
2022/01/03 13:42:24;;;;;;;14.32;2.38;;;;;;;;;;5027668;28;20044;-80
2022/01/03 13:50:12;;;;;;;9.48;1.73;;;;;;;;;;5044389;28;20049;-80
2022/01/03 13:52:39;;;;;;;10.45;1.77;;;;;;;;;;5030000;28;20041;-82
2022/01/03 13:55:14;;;;;;;7.47;1.60;;;;;;;;;;5047887;28;20484;-82
2022/01/03 13:57:42;;;;;;;11.82;1.90;;;;;;;;;;5047746;28;20029;-81
2022/01/03 14:00:09;;;;;;;13.95;1.77;;;;;;;;;;5027243;28;20048;-79
2022/01/03 14:02:35;;;;;;;9.20;1.45;;;;;;;;;;5027831;28;20088;-79
2022/01/03 14:05:02;;;;;;;6.65;1.80;;;;;;;;;;5026176;28;20041;-81
2022/01/03 14:07:28;;;;;;;8.98;1.60;;;;;;;;;;5026397;28;20449;-82
2022/01/03 14:09:58;;;;;;;8.65;1.60;;;;;;;;;;5045051;28;20099;-80
2022/01/03 14:12:24;;;;;;;10.57;1.60;;;;;;;;;;5042012;28;20140;-81
2022/01/03 14:14:52;;;;;;;8.65;1.65;;;;;;;;;;5042031;28;20334;-80
2022/01/03 14:17:18;;;;;;;12.48;1.90;;;;;;;;;;5043114;28;20095;-80
2022/01/03 14:19:44;;;;;;;7.60;1.92;;;;;;;;;;5029070;28;20041;-79
2022/01/03 14:22:12;;;;;;;14.85;2.40;;;;;;;;;;5043266;28;20060;-80
2022/01/03 14:24:55;;;;;;;13.32;2.40;;;;;;;;;;5030530;28;20037;-81
2022/01/03 14:27:21;;;;;;;;;;;;;;;;;;5048773;28;20045;-79
2022/01/03 14:29:48;;;;;;;14.05;2.63;;;;;;;;;;5043717;28;19909;-81
2022/01/03 14:32:17;;;;;;;17.00;2.97;;;;;;;;;;5041872;28;20067;-82
2022/01/03 14:34:49;;;;;;;12.55;2.60;;;;;;;;;;5041040;28;20056;-83
2022/01/03 14:37:22;;;;;;;10.88;2.50;;;;;;;;;;5041694;28;20079;-79
2022/01/03 14:39:49;;;;;;;12.90;2.92;;;;;;;;;;5026857;28;20358;-80
2022/01/03 14:42:17;;;;;;;16.90;3.47;;;;;;;;;;5041786;28;20034;-80
2022/01/03 14:44:43;;;;;;;16.35;3.30;;;;;;;;;;5026419;28;20096;-80
2022/01/03 14:47:11;;;;;;;15.07;3.00;;;;;;;;;;5026807;28;20048;-80
2022/01/03 14:49:41;;;;;;;15.18;3.25;;;;;;;;;;5027048;28;20129;-81
2022/01/03 14:52:07;;;;;;;15.68;3.45;;;;;;;;;;5048972;28;20061;-79
2022/01/03 14:54:42;;;;;;;16.08;3.80;;;;;;;;;;5053701;28;20047;-79
2022/01/03 14:57:16;;;;;;;20.65;3.83;;;;;;;;;;5054885;28;20043;-80
2022/01/03 14:59:42;;;;;;;12.40;3.45;;;;;;;;;;5046653;28;20049;-81
2022/01/03 15:02:08;;;;;;;13.27;2.95;;;;;;;;;;5042386;28;20042;-80
2022/01/03 15:04:34;;;;;;;18.27;3.40;;;;;;;;;;5024949;28;20061;-81
2022/01/03 15:07:13;;;;;;;15.65;2.85;;;;;;;;;;5041295;28;20827;-79
2022/01/03 15:09:39;;;;;;;10.50;2.35;;;;;;;;;;5025223;28;20037;-79